Time;durP1;ratioP1;P1;durP2;ratioP2;P2;SDS_P1;SDS_P2;PMS_P1;PMS_P2;Temp;Humidity;BMP_temperature;BMP_pressure;BME280_temperature;BME280_humidity;BME280_pressure;Samples;Min_cycle;Max_cycle;Signal;HPM_P1;HPM_P2
2023/02/20 00:01:18;;;;;;;1.90;1.80;;;;;;;;;;5075369;28;20184;-52
2023/02/20 00:03:50;;;;;;;1.97;1.73;;;;;;;;;;5076633;28;20180;-53
2023/02/20 00:06:17;;;;;;;2.17;1.73;;;;;;;;;;5078622;28;20195;-54
2023/02/20 00:08:43;;;;;;;2.57;1.87;;;;;;;;;;5093042;28;20202;-54
2023/02/20 00:11:16;;;;;;;2.10;2.00;;;;;;;;;;5088782;28;20180;-52
2023/02/20 00:13:49;;;;;;;2.80;2.10;;;;;;;;;;5052879;28;20556;-54
2023/02/20 00:16:15;;;;;;;1.90;1.80;;;;;;;;;;5088463;28;20212;-54
2023/02/20 00:18:41;;;;;;;2.53;2.27;;;;;;;;;;5076282;28;20180;-54
2023/02/20 00:21:08;;;;;;;2.07;1.90;;;;;;;;;;5092862;28;20218;-53
2023/02/20 00:23:34;;;;;;;2.40;2.20;;;;;;;;;;5077201;28;20645;-54
2023/02/20 00:26:00;;;;;;;3.90;2.77;;;;;;;;;;5087746;28;20184;-53
2023/02/20 00:28:28;;;;;;;3.40;2.50;;;;;;;;;;5081276;28;20226;-52
2023/02/20 00:30:54;;;;;;;2.43;2.23;;;;;;;;;;5079290;28;20176;-53
2023/02/20 00:33:20;;;;;;;5.13;2.70;;;;;;;;;;5083570;28;20195;-52
2023/02/20 00:35:46;;;;;;;2.53;2.33;;;;;;;;;;5093905;28;20758;-53
2023/02/20 00:38:15;;;;;;;2.93;2.57;;;;;;;;;;5080069;28;20199;-54
2023/02/20 00:40:44;;;;;;;3.40;2.70;;;;;;;;;;5091980;28;20600;-53
2023/02/20 00:43:13;;;;;;;4.37;3.57;;;;;;;;;;5089221;28;20657;-53
2023/02/20 00:45:39;;;;;;;3.97;3.10;;;;;;;;;;5081847;28;20184;-52
2023/02/20 00:48:05;;;;;;;3.77;2.97;;;;;;;;;;5080753;28;20183;-52
2023/02/20 00:50:31;;;;;;;4.33;3.67;;;;;;;;;;5088708;28;20222;-53
2023/02/20 00:52:58;;;;;;;3.63;3.33;;;;;;;;;;5087995;28;20214;-53
2023/02/20 00:55:24;;;;;;;5.33;3.80;;;;;;;;;;5082923;28;20704;-53
2023/02/20 00:57:50;;;;;;;5.07;3.67;;;;;;;;;;5090492;28;20577;-53
2023/02/20 01:00:20;;;;;;;4.10;3.70;;;;;;;;;;5082128;28;20530;-53
2023/02/20 01:02:46;;;;;;;4.10;3.70;;;;;;;;;;5084989;28;20198;-54
2023/02/20 01:05:13;;;;;;;5.40;3.50;;;;;;;;;;5084652;28;20176;-52
2023/02/20 01:07:39;;;;;;;4.13;3.73;;;;;;;;;;5083909;28;20184;-54
2023/02/20 01:10:34;;;;;;;;;;;;;;;;;;;;;
2023/02/20 01:13:06;;;;;;;7.83;4.30;;;;;;;;;;5082866;28;20198;-55
2023/02/20 01:15:32;;;;;;;6.43;4.27;;;;;;;;;;5084218;28;20172;-56
2023/02/20 01:17:58;;;;;;;5.23;4.73;;;;;;;;;;5083316;28;20268;-53
2023/02/20 01:20:24;;;;;;;5.90;4.50;;;;;;;;;;5093067;28;20654;-52
2023/02/20 01:22:53;;;;;;;5.70;5.03;;;;;;;;;;5092644;28;20176;-54
2023/02/20 01:25:19;;;;;;;5.90;4.80;;;;;;;;;;5092383;28;20233;-54
2023/02/20 01:27:45;;;;;;;5.90;5.20;;;;;;;;;;5079918;28;20181;-53
2023/02/20 01:30:11;;;;;;;7.13;5.70;;;;;;;;;;5081348;28;20195;-53
2023/02/20 01:32:48;;;;;;;5.50;5.00;;;;;;;;;;5083922;28;20195;-53
2023/02/20 01:35:15;;;;;;;6.37;5.23;;;;;;;;;;5092341;28;20217;-52
2023/02/20 01:37:41;;;;;;;5.60;5.00;;;;;;;;;;5089876;28;20297;-53
2023/02/20 01:40:13;;;;;;;6.40;5.80;;;;;;;;;;5079624;28;20183;-55
2023/02/20 01:42:40;;;;;;;7.03;5.23;;;;;;;;;;5081722;28;20180;-53
2023/02/20 01:45:26;;;;;;;5.60;4.83;;;;;;;;;;5069032;28;20180;-52
2023/02/20 01:47:54;;;;;;;7.17;5.30;;;;;;;;;;5080038;28;20199;-53
2023/02/20 01:50:23;;;;;;;6.47;5.80;;;;;;;;;;5082408;28;20180;-53
2023/02/20 01:52:52;;;;;;;6.00;5.00;;;;;;;;;;5082614;28;20211;-53
2023/02/20 01:55:37;;;;;;;6.63;4.87;;;;;;;;;;5076718;28;20226;-53
2023/02/20 01:58:09;;;;;;;5.93;5.30;;;;;;;;;;5080677;28;20205;-53
2023/02/20 02:00:35;;;;;;;6.83;5.90;;;;;;;;;;5085862;28;20183;-53
2023/02/20 02:03:21;;;;;;;5.33;4.83;;;;;;;;;;5082220;28;20176;-53
2023/02/20 02:05:48;;;;;;;6.30;5.17;;;;;;;;;;5078295;28;20642;-52
2023/02/20 02:08:16;;;;;;;5.73;4.83;;;;;;;;;;5080469;28;20176;-53
2023/02/20 02:10:59;;;;;;;8.20;5.33;;;;;;;;;;5080290;28;20272;-54
2023/02/20 02:13:25;;;;;;;5.83;4.90;;;;;;;;;;5087413;28;20195;-53
2023/02/20 02:15:52;;;;;;;6.03;5.33;;;;;;;;;;5082800;28;20263;-52
2023/02/20 02:18:36;;;;;;;5.60;5.10;;;;;;;;;;5082522;28;20230;-53
2023/02/20 02:21:21;;;;;;;6.27;5.67;;;;;;;;;;5080953;28;20195;-53
2023/02/20 02:24:02;;;;;;;8.37;6.60;;;;;;;;;;5078876;28;20270;-53
2023/02/20 02:26:47;;;;;;;8.20;5.67;;;;;;;;;;5076100;28;20185;-53
2023/02/20 02:29:37;;;;;;;7.17;5.33;;;;;;;;;;5079773;28;20666;-53
2023/02/20 02:32:04;;;;;;;7.00;5.90;;;;;;;;;;5083240;28;20199;-54
2023/02/20 02:34:49;;;;;;;7.47;6.07;;;;;;;;;;5057423;28;20215;-53
2023/02/20 02:37:17;;;;;;;7.07;5.97;;;;;;;;;;5080940;28;20204;-53
2023/02/20 02:39:52;;;;;;;7.90;5.93;;;;;;;;;;5079893;28;20180;-52
2023/02/20 02:42:33;;;;;;;7.53;5.90;;;;;;;;;;5071615;28;20211;-53
2023/02/20 02:45:19;;;;;;;8.67;6.50;;;;;;;;;;5085435;28;20184;-53
2023/02/20 02:47:56;;;;;;;7.73;6.27;;;;;;;;;;5076964;28;20190;-53
2023/02/20 02:50:22;;;;;;;8.70;6.20;;;;;;;;;;5081774;28;20205;-52
2023/02/20 02:52:50;;;;;;;8.60;6.07;;;;;;;;;;5089139;28;20677;-53
2023/02/20 02:55:21;;;;;;;6.97;5.73;;;;;;;;;;5088183;28;20654;-54
2023/02/20 02:57:47;;;;;;;8.60;5.87;;;;;;;;;;5080097;28;20256;-52
2023/02/20 03:00:16;;;;;;;7.57;6.70;;;;;;;;;;5081716;28;20168;-53
2023/02/20 03:02:58;;;;;;;7.40;6.13;;;;;;;;;;5076017;28;20263;-52
2023/02/20 03:05:26;;;;;;;7.57;6.77;;;;;;;;;;5082964;28;20215;-53
2023/02/20 03:07:56;;;;;;;9.83;6.53;;;;;;;;;;5088517;28;20171;-52
2023/02/20 03:10:30;;;;;;;6.83;6.13;;;;;;;;;;5085808;28;20184;-53
2023/02/20 03:12:59;;;;;;;8.93;7.27;;;;;;;;;;5082558;28;20199;-53
2023/02/20 03:21:17;;;;;;;8.60;6.73;;;;;;;;;;4440051;28;20215;-53
2023/02/20 03:23:45;;;;;;;10.07;7.33;;;;;;;;;;5085016;28;20271;-52
2023/02/20 03:26:16;;;;;;;7.20;6.27;;;;;;;;;;5085426;28;20171;-53
2023/02/20 03:28:43;;;;;;;9.43;7.30;;;;;;;;;;5070271;28;20180;-53
2023/02/20 03:31:15;;;;;;;8.87;7.33;;;;;;;;;;5086186;28;20180;-54
2023/02/20 03:45:05;;;;;;;8.83;6.93;;;;;;;;;;5085386;28;20598;-52
2023/02/20 03:47:33;;;;;;;10.27;8.37;;;;;;;;;;5076176;28;20192;-53
2023/02/20 03:50:00;;;;;;;9.67;7.37;;;;;;;;;;5085539;28;20187;-52
2023/02/20 03:52:27;;;;;;;10.00;7.73;;;;;;;;;;5084487;28;20192;-53
2023/02/20 03:54:53;;;;;;;10.27;7.47;;;;;;;;;;5090029;28;20273;-53
2023/02/20 03:57:32;;;;;;;9.57;7.60;;;;;;;;;;5093163;28;20196;-52
2023/02/20 04:00:03;;;;;;;9.10;6.67;;;;;;;;;;5092318;28;20171;-54
2023/02/20 04:02:31;;;;;;;9.47;7.37;;;;;;;;;;5082049;28;20266;-52
2023/02/20 04:04:59;;;;;;;8.17;7.20;;;;;;;;;;5080842;28;20698;-53
2023/02/20 04:07:29;;;;;;;9.00;7.67;;;;;;;;;;5092230;28;20237;-53
2023/02/20 04:09:57;;;;;;;9.07;6.63;;;;;;;;;;5083399;28;20218;-53
2023/02/20 04:12:25;;;;;;;9.67;7.17;;;;;;;;;;5072479;28;20647;-53
2023/02/20 04:14:54;;;;;;;8.27;6.97;;;;;;;;;;5078613;28;20180;-53
2023/02/20 04:17:21;;;;;;;9.93;7.20;;;;;;;;;;5082186;28;20282;-53
2023/02/20 04:19:47;;;;;;;10.30;7.23;;;;;;;;;;5088148;28;20533;-53
2023/02/20 04:22:17;;;;;;;10.97;7.67;;;;;;;;;;5079559;28;20224;-52
2023/02/20 04:24:49;;;;;;;7.67;6.10;;;;;;;;;;5081595;28;20180;-54
2023/02/20 04:27:15;;;;;;;10.00;6.57;;;;;;;;;;5082103;28;20619;-53
2023/02/20 04:29:41;;;;;;;8.50;7.20;;;;;;;;;;5081528;28;20188;-53
2023/02/20 04:32:07;;;;;;;10.73;7.80;;;;;;;;;;5076150;28;20199;-53
2023/02/20 04:34:34;;;;;;;9.90;6.93;;;;;;;;;;5083915;28;21867;-53
2023/02/20 04:37:06;;;;;;;10.33;7.50;;;;;;;;;;5075590;28;20262;-52
2023/02/20 04:39:32;;;;;;;10.23;7.13;;;;;;;;;;5090468;28;20176;-52
2023/02/20 04:41:58;;;;;;;10.97;7.23;;;;;;;;;;5070609;28;20180;-53
2023/02/20 04:44:30;;;;;;;8.90;6.90;;;;;;;;;;5081344;28;20187;-52
2023/02/20 04:46:57;;;;;;;8.33;6.47;;;;;;;;;;5090155;28;20260;-52
2023/02/20 04:49:23;;;;;;;8.23;6.77;;;;;;;;;;5091081;28;20172;-53
2023/02/20 04:51:49;;;;;;;8.93;6.33;;;;;;;;;;5082109;28;20271;-52
2023/02/20 04:54:15;;;;;;;9.77;6.67;;;;;;;;;;5085367;28;20208;-53
2023/02/20 04:56:41;;;;;;;9.53;6.60;;;;;;;;;;5090097;28;20690;-52
2023/02/20 04:59:07;;;;;;;9.87;6.40;;;;;;;;;;5090781;28;20176;-52
2023/02/20 05:01:33;;;;;;;8.37;6.10;;;;;;;;;;5083417;28;20176;-52
2023/02/20 05:03:59;;;;;;;7.53;5.80;;;;;;;;;;5084117;28;20207;-53
2023/02/20 05:06:25;;;;;;;7.53;6.07;;;;;;;;;;5090708;28;20211;-53
2023/02/20 05:08:51;;;;;;;7.03;5.63;;;;;;;;;;5085688;28;20175;-52
2023/02/20 05:11:17;;;;;;;8.03;5.67;;;;;;;;;;5078526;28;20180;-53
2023/02/20 05:13:43;;;;;;;7.93;5.10;;;;;;;;;;5090253;28;20297;-53
2023/02/20 05:16:09;;;;;;;7.67;5.30;;;;;;;;;;5083442;28;20203;-53
2023/02/20 05:18:35;;;;;;;7.50;5.53;;;;;;;;;;5092520;28;20187;-53
2023/02/20 05:23:46;;;;;;;6.67;5.73;;;;;;;;;;5088874;28;20197;-53
2023/02/20 05:26:16;;;;;;;7.23;5.03;;;;;;;;;;5084092;28;20175;-52
2023/02/20 05:28:42;;;;;;;7.10;4.83;;;;;;;;;;5084064;28;20179;-53
2023/02/20 05:31:08;;;;;;;5.90;5.20;;;;;;;;;;5074481;28;20212;-54
2023/02/20 05:33:34;;;;;;;8.07;5.33;;;;;;;;;;5077909;28;20231;-52
2023/02/20 05:36:00;;;;;;;8.93;5.47;;;;;;;;;;5091262;28;20229;-53
2023/02/20 05:38:26;;;;;;;8.03;4.93;;;;;;;;;;5079711;28;20178;-53
2023/02/20 05:40:53;;;;;;;7.47;5.57;;;;;;;;;;5077096;28;20237;-53
2023/02/20 05:43:19;;;;;;;6.90;4.97;;;;;;;;;;5076554;28;20187;-53
2023/02/20 05:45:45;;;;;;;6.30;4.50;;;;;;;;;;5086864;28;20544;-52
2023/02/20 05:48:11;;;;;;;6.70;4.57;;;;;;;;;;5082182;28;20180;-52
2023/02/20 05:50:37;;;;;;;5.73;4.33;;;;;;;;;;5076214;28;20177;-54
2023/02/20 05:53:04;;;;;;;5.83;5.20;;;;;;;;;;5076713;28;20286;-53
2023/02/20 05:55:30;;;;;;;7.77;4.83;;;;;;;;;;5076182;28;20690;-52
2023/02/20 05:57:56;;;;;;;8.07;5.40;;;;;;;;;;5073265;28;20180;-53
2023/02/20 06:00:22;;;;;;;5.00;4.50;;;;;;;;;;5087565;28;20180;-53
2023/02/20 06:02:49;;;;;;;7.80;5.33;;;;;;;;;;5083222;28;20178;-53
2023/02/20 06:05:15;;;;;;;6.97;5.80;;;;;;;;;;5075008;28;20195;-52
2023/02/20 06:07:45;;;;;;;8.00;5.27;;;;;;;;;;5078298;28;20212;-53
2023/02/20 06:10:11;;;;;;;6.57;4.63;;;;;;;;;;5081040;28;20167;-52
2023/02/20 06:12:37;;;;;;;7.70;5.10;;;;;;;;;;5081695;28;20200;-53
2023/02/20 06:15:03;;;;;;;6.27;5.17;;;;;;;;;;5082319;28;20175;-53
2023/02/20 06:17:31;;;;;;;7.10;4.93;;;;;;;;;;5089520;28;20575;-52
2023/02/20 06:19:57;;;;;;;8.77;5.40;;;;;;;;;;5074444;28;20727;-53
2023/02/20 06:22:23;;;;;;;8.67;5.77;;;;;;;;;;5081701;28;20184;-53
2023/02/20 06:24:49;;;;;;;5.87;4.97;;;;;;;;;;5087578;28;20195;-53
2023/02/20 06:27:16;;;;;;;8.37;6.00;;;;;;;;;;5081532;28;20255;-53
2023/02/20 06:29:43;;;;;;;7.10;5.23;;;;;;;;;;5089900;28;20183;-53
2023/02/20 06:32:09;;;;;;;6.80;5.60;;;;;;;;;;5080163;28;20211;-53
2023/02/20 06:34:35;;;;;;;7.53;5.90;;;;;;;;;;5078671;28;20185;-52
2023/02/20 06:37:02;;;;;;;8.00;5.90;;;;;;;;;;5077751;28;20225;-53
2023/02/20 06:39:28;;;;;;;7.10;6.30;;;;;;;;;;5077441;28;20182;-53
2023/02/20 06:41:55;;;;;;;7.63;5.97;;;;;;;;;;5075091;28;20272;-53
2023/02/20 06:44:21;;;;;;;10.03;6.90;;;;;;;;;;5082061;28;20175;-52
2023/02/20 06:46:47;;;;;;;11.03;7.80;;;;;;;;;;5081928;28;20253;-52
2023/02/20 06:49:13;;;;;;;11.30;8.37;;;;;;;;;;5085770;28;20187;-53
2023/02/20 06:51:39;;;;;;;12.03;8.47;;;;;;;;;;5084274;28;20172;-53
2023/02/20 06:54:06;;;;;;;12.20;9.70;;;;;;;;;;5071738;28;20639;-53
2023/02/20 06:56:33;;;;;;;14.67;9.33;;;;;;;;;;5081229;28;20203;-53
2023/02/20 06:58:59;;;;;;;16.40;9.60;;;;;;;;;;5071809;28;20177;-53
2023/02/20 07:01:27;;;;;;;12.53;9.87;;;;;;;;;;5081067;28;20171;-52
2023/02/20 07:03:54;;;;;;;10.83;9.30;;;;;;;;;;5082774;28;20805;-53
2023/02/20 07:06:20;;;;;;;16.67;10.77;;;;;;;;;;5080125;28;20180;-53
2023/02/20 07:08:46;;;;;;;14.07;10.33;;;;;;;;;;5071220;28;20187;-53
2023/02/20 07:11:13;;;;;;;13.33;9.77;;;;;;;;;;5079209;28;20309;-53
2023/02/20 07:13:39;;;;;;;12.63;10.60;;;;;;;;;;5086242;28;20688;-53
2023/02/20 07:16:06;;;;;;;14.70;10.70;;;;;;;;;;5079480;28;20179;-52
2023/02/20 07:18:32;;;;;;;12.90;10.73;;;;;;;;;;5080587;28;20657;-53
2023/02/20 07:20:58;;;;;;;15.10;11.23;;;;;;;;;;5088466;28;20279;-53
2023/02/20 07:23:24;;;;;;;13.53;10.67;;;;;;;;;;5088342;28;20183;-53
2023/02/20 07:25:50;;;;;;;14.50;10.40;;;;;;;;;;5085942;28;20188;-53
2023/02/20 07:28:17;;;;;;;13.33;10.17;;;;;;;;;;5076901;28;20201;-53
2023/02/20 07:30:43;;;;;;;14.00;9.23;;;;;;;;;;5083853;28;20184;-53
2023/02/20 07:33:10;;;;;;;15.53;10.23;;;;;;;;;;5078476;28;20547;-53
2023/02/20 07:35:36;;;;;;;16.48;11.93;;;;;;;;;;5083943;28;20426;-53
2023/02/20 07:38:02;;;;;;;12.27;10.63;;;;;;;;;;5073512;28;20247;-52
2023/02/20 07:40:28;;;;;;;14.30;10.53;;;;;;;;;;5077902;28;20168;-53
2023/02/20 07:42:54;;;;;;;13.57;9.43;;;;;;;;;;5083155;28;20206;-53
2023/02/20 07:45:20;;;;;;;12.13;10.30;;;;;;;;;;5076766;28;20651;-53
2023/02/20 07:47:46;;;;;;;14.63;10.07;;;;;;;;;;5085275;28;20230;-53
2023/02/20 07:50:14;;;;;;;13.97;9.50;;;;;;;;;;5087626;28;20237;-53
2023/02/20 07:52:40;;;;;;;14.80;10.40;;;;;;;;;;5086969;28;20282;-52
2023/02/20 07:55:06;;;;;;;14.23;9.93;;;;;;;;;;5088904;28;20179;-53
2023/02/20 07:57:33;;;;;;;15.63;10.97;;;;;;;;;;5076588;28;20607;-53
2023/02/20 07:59:59;;;;;;;12.10;9.97;;;;;;;;;;5088582;28;20195;-53
2023/02/20 08:02:25;;;;;;;14.47;10.43;;;;;;;;;;5087491;28;20187;-53
2023/02/20 08:04:51;;;;;;;13.53;9.80;;;;;;;;;;5079357;28;20175;-53
2023/02/20 08:07:17;;;;;;;10.53;9.20;;;;;;;;;;5085598;28;20180;-53
2023/02/20 08:09:46;;;;;;;13.73;9.50;;;;;;;;;;5084824;28;20183;-52
2023/02/20 08:12:12;;;;;;;13.97;10.37;;;;;;;;;;5083826;28;20241;-53
2023/02/20 08:14:38;;;;;;;13.10;10.00;;;;;;;;;;5076594;28;20180;-54
2023/02/20 08:17:04;;;;;;;12.80;9.90;;;;;;;;;;5072987;28;20176;-54
2023/02/20 08:19:30;;;;;;;12.20;9.23;;;;;;;;;;5074241;28;20221;-53
2023/02/20 08:21:56;;;;;;;13.63;10.37;;;;;;;;;;5091704;28;20215;-53
2023/02/20 08:24:22;;;;;;;14.00;9.60;;;;;;;;;;5090498;28;20597;-53
2023/02/20 08:26:48;;;;;;;11.90;9.27;;;;;;;;;;5081760;28;20259;-52
2023/02/20 08:29:15;;;;;;;11.10;8.70;;;;;;;;;;5089821;28;20623;-53
2023/02/20 08:31:41;;;;;;;12.43;9.20;;;;;;;;;;5081359;28;20180;-53
2023/02/20 08:34:07;;;;;;;14.00;9.47;;;;;;;;;;5083146;28;20263;-54
2023/02/20 08:36:34;;;;;;;11.97;8.93;;;;;;;;;;5082421;28;20187;-53
2023/02/20 08:39:01;;;;;;;14.13;9.10;;;;;;;;;;5084242;28;20184;-53
2023/02/20 08:41:27;;;;;;;11.83;9.37;;;;;;;;;;5091683;28;20176;-53
2023/02/20 08:43:54;;;;;;;11.80;8.83;;;;;;;;;;5084317;28;20176;-53
2023/02/20 08:46:20;;;;;;;11.33;9.07;;;;;;;;;;5086754;28;20176;-53
2023/02/20 08:48:46;;;;;;;15.43;10.03;;;;;;;;;;5080849;28;20544;-53
2023/02/20 08:51:12;;;;;;;11.33;9.90;;;;;;;;;;5088368;28;20637;-52
2023/02/20 08:53:39;;;;;;;13.87;9.03;;;;;;;;;;5078618;28;20854;-54
2023/02/20 08:56:06;;;;;;;12.07;9.20;;;;;;;;;;5083938;28;20195;-53
2023/02/20 08:58:32;;;;;;;13.20;9.67;;;;;;;;;;5084269;28;20627;-53
2023/02/20 09:00:58;;;;;;;13.83;9.57;;;;;;;;;;5087164;28;20229;-53
2023/02/20 09:03:25;;;;;;;12.60;10.03;;;;;;;;;;5088566;28;20172;-54
2023/02/20 09:05:51;;;;;;;14.67;9.53;;;;;;;;;;5090464;28;20639;-53
2023/02/20 09:08:18;;;;;;;14.07;8.97;;;;;;;;;;5081157;28;20183;-53
2023/02/20 09:10:44;;;;;;;10.43;8.63;;;;;;;;;;5083979;28;20272;-53
2023/02/20 09:13:10;;;;;;;15.30;10.07;;;;;;;;;;5082515;28;21340;-52
2023/02/20 09:15:38;;;;;;;15.77;10.83;;;;;;;;;;5084040;28;20296;-53
2023/02/20 09:18:05;;;;;;;15.13;8.67;;;;;;;;;;5088717;28;20176;-52
2023/02/20 09:20:32;;;;;;;12.80;9.90;;;;;;;;;;5080781;28;20252;-53
2023/02/20 09:22:59;;;;;;;11.77;8.73;;;;;;;;;;5078725;28;20271;-55
2023/02/20 09:25:25;;;;;;;13.47;9.80;;;;;;;;;;5082009;28;20187;-54
2023/02/20 09:27:51;;;;;;;18.47;10.00;;;;;;;;;;5080838;28;20220;-51
2023/02/20 09:30:19;;;;;;;14.27;10.37;;;;;;;;;;5082807;28;20765;-52
2023/02/20 09:32:46;;;;;;;15.37;9.33;;;;;;;;;;5089198;28;20209;-52
2023/02/20 09:35:26;;;;;;;13.57;9.23;;;;;;;;;;5081249;28;20264;-51
2023/02/20 09:37:52;;;;;;;17.13;9.83;;;;;;;;;;5080298;28;20181;-52
2023/02/20 09:40:22;;;;;;;19.47;9.80;;;;;;;;;;5089392;28;20183;-52
2023/02/20 09:43:14;;;;;;;10.90;7.80;;;;;;;;;;5081585;28;20191;-51
2023/02/20 09:45:42;;;;;;;17.63;10.70;;;;;;;;;;5071198;28;20661;-52
2023/02/20 09:48:08;;;;;;;16.63;9.70;;;;;;;;;;5081569;28;20190;-51
2023/02/20 09:50:42;;;;;;;12.33;9.07;;;;;;;;;;5083920;28;20187;-52
2023/02/20 09:53:31;;;;;;;12.67;9.73;;;;;;;;;;5078530;28;20204;-51
2023/02/20 09:55:59;;;;;;;11.87;8.43;;;;;;;;;;5067686;28;20219;-51
2023/02/20 09:58:27;;;;;;;11.23;8.53;;;;;;;;;;5079534;28;20224;-51
2023/02/20 10:00:58;;;;;;;13.23;8.77;;;;;;;;;;5079043;28;20191;-52
2023/02/20 10:03:36;;;;;;;14.27;9.03;;;;;;;;;;5080837;28;20198;-51
2023/02/20 10:06:04;;;;;;;12.57;9.23;;;;;;;;;;5075538;28;20272;-51
2023/02/20 10:08:30;;;;;;;12.40;8.60;;;;;;;;;;5083264;28;20636;-51
2023/02/20 10:11:02;;;;;;;13.83;9.10;;;;;;;;;;5084574;28;20187;-53
2023/02/20 10:13:38;;;;;;;12.20;8.83;;;;;;;;;;5082907;28;20287;-52
2023/02/20 10:16:25;;;;;;;13.13;8.27;;;;;;;;;;5082108;28;20639;-51
2023/02/20 10:19:17;;;;;;;12.23;8.77;;;;;;;;;;5086776;28;20180;-52
2023/02/20 10:21:52;;;;;;;13.43;8.57;;;;;;;;;;5085566;28;20212;-52
2023/02/20 10:24:27;;;;;;;13.40;9.80;;;;;;;;;;5079860;28;20186;-52
2023/02/20 10:26:57;;;;;;;17.50;9.53;;;;;;;;;;5089756;28;20179;-51
2023/02/20 10:29:25;;;;;;;11.03;8.20;;;;;;;;;;5074501;28;20175;-51
2023/02/20 10:31:53;;;;;;;10.07;8.27;;;;;;;;;;5080052;28;20233;-52
2023/02/20 10:34:29;;;;;;;13.60;8.73;;;;;;;;;;5081854;28;20568;-52
2023/02/20 10:37:00;;;;;;;10.03;7.80;;;;;;;;;;5082283;28;20186;-53
2023/02/20 10:39:27;;;;;;;11.33;7.93;;;;;;;;;;5080843;28;20660;-51
2023/02/20 10:41:58;;;;;;;12.80;8.87;;;;;;;;;;5082045;28;20175;-52
2023/02/20 10:44:35;;;;;;;9.90;8.00;;;;;;;;;;5079089;28;20176;-52
2023/02/20 10:47:06;;;;;;;11.57;7.97;;;;;;;;;;5081235;28;20186;-52
2023/02/20 10:49:56;;;;;;;15.70;9.40;;;;;;;;;;5087437;28;20190;-52
2023/02/20 10:52:35;;;;;;;10.20;8.37;;;;;;;;;;5075636;28;20208;-52
2023/02/20 10:55:07;;;;;;;11.03;8.23;;;;;;;;;;5072886;28;20299;-51
2023/02/20 10:57:33;;;;;;;12.33;9.03;;;;;;;;;;5088153;28;20185;-53
2023/02/20 11:00:19;;;;;;;13.07;8.83;;;;;;;;;;5088208;28;20176;-51
2023/02/20 11:02:56;;;;;;;13.07;8.63;;;;;;;;;;5082591;28;20667;-52
2023/02/20 11:05:23;;;;;;;12.10;8.90;;;;;;;;;;5082196;28;20650;-52
2023/02/20 11:07:49;;;;;;;16.37;9.17;;;;;;;;;;5080081;28;20631;-52
2023/02/20 11:10:15;;;;;;;11.97;8.67;;;;;;;;;;5081841;28;20186;-52
2023/02/20 11:12:41;;;;;;;15.13;8.60;;;;;;;;;;5079985;28;20211;-52
2023/02/20 11:15:10;;;;;;;10.00;8.37;;;;;;;;;;5083612;28;20180;-52
2023/02/20 11:17:37;;;;;;;13.80;8.23;;;;;;;;;;5085463;28;20643;-52
2023/02/20 11:20:05;;;;;;;11.17;8.87;;;;;;;;;;5086695;28;20215;-52
2023/02/20 11:22:57;;;;;;;12.30;8.07;;;;;;;;;;5080639;28;20179;-52
2023/02/20 11:25:28;;;;;;;11.97;8.33;;;;;;;;;;5076095;28;20795;-53
2023/02/20 11:27:56;;;;;;;11.90;8.80;;;;;;;;;;5083789;28;20183;-52
2023/02/20 11:30:27;;;;;;;15.47;9.67;;;;;;;;;;5074834;28;20189;-52
2023/02/20 11:33:01;;;;;;;12.27;8.77;;;;;;;;;;5085110;28;20206;-52
2023/02/20 11:35:28;;;;;;;10.33;7.07;;;;;;;;;;5084962;28;20179;-51
2023/02/20 11:38:13;;;;;;;16.77;9.37;;;;;;;;;;5085067;28;20188;-51
2023/02/20 11:40:39;;;;;;;12.73;8.20;;;;;;;;;;5079187;28;20808;-52
2023/02/20 11:43:26;;;;;;;14.33;9.23;;;;;;;;;;5076380;28;20176;-53
2023/02/20 11:46:12;;;;;;;10.13;7.90;;;;;;;;;;5075611;28;20237;-53
2023/02/20 11:48:38;;;;;;;11.10;8.27;;;;;;;;;;5083617;28;20278;-53
2023/02/20 11:51:04;;;;;;;10.67;8.27;;;;;;;;;;5080868;28;20233;-53
2023/02/20 11:53:32;;;;;;;11.60;7.70;;;;;;;;;;5077539;28;20709;-53
2023/02/20 11:56:12;;;;;;;10.53;7.93;;;;;;;;;;5079768;28;20199;-53
2023/02/20 11:58:39;;;;;;;10.83;8.23;;;;;;;;;;5079191;28;20172;-53
2023/02/20 12:01:06;;;;;;;11.10;8.20;;;;;;;;;;5086558;28;20654;-53
2023/02/20 12:03:36;;;;;;;11.33;8.40;;;;;;;;;;5070522;28;20632;-52
2023/02/20 12:06:22;;;;;;;12.63;7.93;;;;;;;;;;5069776;28;20182;-53
2023/02/20 12:08:54;;;;;;;12.10;8.57;;;;;;;;;;5088077;28;20189;-53
2023/02/20 12:11:20;;;;;;;13.53;8.20;;;;;;;;;;5071537;28;20553;-54
2023/02/20 12:13:48;;;;;;;9.50;7.90;;;;;;;;;;5070253;28;20643;-53
2023/02/20 12:16:17;;;;;;;13.20;8.80;;;;;;;;;;5080535;28;20172;-53
2023/02/20 12:18:49;;;;;;;12.60;7.70;;;;;;;;;;5082865;28;20179;-53
2023/02/20 12:21:18;;;;;;;13.30;8.57;;;;;;;;;;5086339;28;20234;-53
2023/02/20 12:24:03;;;;;;;11.83;8.37;;;;;;;;;;5084668;28;20180;-53
2023/02/20 12:26:43;;;;;;;14.57;8.67;;;;;;;;;;5088326;28;20588;-53
2023/02/20 12:29:09;;;;;;;10.67;8.17;;;;;;;;;;5081835;28;20218;-53
2023/02/20 12:31:38;;;;;;;10.67;7.90;;;;;;;;;;5074842;28;20212;-52
2023/02/20 12:34:10;;;;;;;12.60;7.83;;;;;;;;;;5085545;28;20211;-53
2023/02/20 12:36:36;;;;;;;15.87;7.97;;;;;;;;;;5088546;28;20175;-52
2023/02/20 12:39:22;;;;;;;11.97;9.00;;;;;;;;;;5091415;28;20171;-53
2023/02/20 12:42:08;;;;;;;14.93;8.63;;;;;;;;;;5032485;28;20560;-53
2023/02/20 12:44:43;;;;;;;9.60;8.27;;;;;;;;;;5033859;28;20593;-53
2023/02/20 12:47:26;;;;;;;11.10;8.77;;;;;;;;;;5085206;28;20179;-52
2023/02/20 12:49:55;;;;;;;11.57;8.80;;;;;;;;;;5083751;28;20654;-52
2023/02/20 12:52:34;;;;;;;13.97;8.93;;;;;;;;;;5087176;28;20289;-53
2023/02/20 12:55:06;;;;;;;13.83;8.83;;;;;;;;;;5088522;28;20180;-53
2023/02/20 12:57:42;;;;;;;11.73;8.87;;;;;;;;;;5088019;28;20184;-53
2023/02/20 13:00:18;;;;;;;11.40;8.50;;;;;;;;;;5080729;28;20510;-53
2023/02/20 13:03:05;;;;;;;9.47;8.33;;;;;;;;;;5084888;28;20190;-53
2023/02/20 13:05:32;;;;;;;11.67;8.07;;;;;;;;;;5069652;28;20547;-52
2023/02/20 13:08:02;;;;;;;11.23;7.77;;;;;;;;;;5084331;28;20183;-52
2023/02/20 13:10:33;;;;;;;14.43;8.53;;;;;;;;;;5076434;28;20559;-52
2023/02/20 13:13:00;;;;;;;12.00;8.63;;;;;;;;;;5073482;28;20728;-53
2023/02/20 13:15:45;;;;;;;11.50;8.67;;;;;;;;;;5089586;28;20233;-54
2023/02/20 13:18:29;;;;;;;12.60;8.90;;;;;;;;;;5077024;28;20183;-52
2023/02/20 13:20:58;;;;;;;12.23;8.33;;;;;;;;;;5085427;28;20716;-53
2023/02/20 13:23:24;;;;;;;11.37;7.93;;;;;;;;;;5090802;28;20209;-53
2023/02/20 13:25:51;;;;;;;11.93;8.63;;;;;;;;;;5089680;28;20187;-54
2023/02/20 13:28:20;;;;;;;11.87;8.00;;;;;;;;;;5080816;28;20183;-53
2023/02/20 13:31:05;;;;;;;8.60;7.70;;;;;;;;;;5078169;28;20187;-52
2023/02/20 13:33:32;;;;;;;9.10;7.43;;;;;;;;;;5072297;28;20703;-52
2023/02/20 13:35:58;;;;;;;12.03;8.27;;;;;;;;;;5078439;28;20175;-52
2023/02/20 13:38:26;;;;;;;10.23;7.90;;;;;;;;;;5090236;28;20303;-53
2023/02/20 13:40:55;;;;;;;10.07;7.90;;;;;;;;;;5089995;28;20180;-52
2023/02/20 13:43:27;;;;;;;12.77;9.00;;;;;;;;;;5091201;28;20195;-53
2023/02/20 13:46:03;;;;;;;16.67;7.67;;;;;;;;;;5081239;28;20179;-52
2023/02/20 13:48:29;;;;;;;10.00;8.00;;;;;;;;;;5072422;28;20184;-52
2023/02/20 13:51:14;;;;;;;9.57;7.73;;;;;;;;;;5082148;28;20211;-53
2023/02/20 13:53:40;;;;;;;10.30;8.47;;;;;;;;;;5089753;28;20204;-53
2023/02/20 13:56:16;;;;;;;9.53;8.10;;;;;;;;;;5082967;28;20195;-52
2023/02/20 13:58:42;;;;;;;9.53;7.57;;;;;;;;;;5082465;28;20180;-52
2023/02/20 14:01:08;;;;;;;11.10;8.90;;;;;;;;;;5078691;28;20168;-52
2023/02/20 14:03:34;;;;;;;8.67;7.10;;;;;;;;;;5077309;28;20188;-53
2023/02/20 14:06:01;;;;;;;11.37;8.63;;;;;;;;;;5082986;28;20192;-52
2023/02/20 14:08:27;;;;;;;12.50;7.87;;;;;;;;;;5080953;28;20183;-53
2023/02/20 14:10:53;;;;;;;10.23;8.17;;;;;;;;;;5090840;28;20183;-52
2023/02/20 14:13:20;;;;;;;10.17;8.57;;;;;;;;;;5086345;28;20278;-52
2023/02/20 14:15:51;;;;;;;10.40;7.93;;;;;;;;;;5077535;28;20183;-53
2023/02/20 14:18:19;;;;;;;8.63;7.73;;;;;;;;;;5089639;28;20262;-52
2023/02/20 14:20:45;;;;;;;11.33;7.33;;;;;;;;;;5087663;28;20652;-53
2023/02/20 14:23:20;;;;;;;11.00;7.87;;;;;;;;;;5085912;28;20270;-52
2023/02/20 14:25:58;;;;;;;11.87;8.77;;;;;;;;;;5086457;28;20290;-53
2023/02/20 14:28:24;;;;;;;14.80;8.87;;;;;;;;;;5084309;28;20317;-51
2023/02/20 14:31:03;;;;;;;11.27;8.83;;;;;;;;;;5087639;28;20176;-52
2023/02/20 14:33:31;;;;;;;10.73;8.57;;;;;;;;;;5081952;28;20310;-52
2023/02/20 14:36:03;;;;;;;12.43;9.50;;;;;;;;;;5073951;28;20193;-52
2023/02/20 14:38:35;;;;;;;11.07;9.10;;;;;;;;;;5085569;28;20178;-53
2023/02/20 14:41:09;;;;;;;11.77;9.30;;;;;;;;;;5086876;28;20233;-52
2023/02/20 14:43:35;;;;;;;12.63;9.23;;;;;;;;;;5082033;28;20660;-52
2023/02/20 14:46:04;;;;;;;12.13;8.53;;;;;;;;;;5089844;28;20773;-52
2023/02/20 14:48:31;;;;;;;11.47;8.20;;;;;;;;;;5089300;28;20195;-53
2023/02/20 14:51:15;;;;;;;11.97;9.10;;;;;;;;;;5084004;28;20222;-53
2023/02/20 14:53:42;;;;;;;15.37;9.33;;;;;;;;;;5087850;28;20553;-53
2023/02/20 14:56:17;;;;;;;11.67;8.70;;;;;;;;;;5088504;28;20203;-52
2023/02/20 14:58:45;;;;;;;12.03;8.87;;;;;;;;;;5080355;28;20183;-52
2023/02/20 15:01:15;;;;;;;11.03;8.87;;;;;;;;;;5087848;28;20175;-52
2023/02/20 15:03:41;;;;;;;14.73;10.70;;;;;;;;;;5071427;28;20195;-53
2023/02/20 15:06:12;;;;;;;11.63;9.63;;;;;;;;;;5071568;28;20183;-52
2023/02/20 15:08:38;;;;;;;17.47;10.03;;;;;;;;;;5072086;28;20179;-52
2023/02/20 15:11:11;;;;;;;10.17;8.60;;;;;;;;;;5089358;28;20814;-52